Weather observations for the past three days for
Rawlins Municipal Airport
Metric (Imperial)
Date Time (mdt) Wind (kph) Vis. (km) Weather Sky Cond. Temperature (ºC) Relative Humidity Wind Chill (°C) Heat Index (°C) Pressure Precipitation (cm)
Air Dwpt 6 hour altimeter (cm) sea level (mb) 1 hr 3 hr 6 hr
Max. Min.
09 01:53 W 20 16.09 Fair CLR 11.1 -2.2 40% 76.17 1008.1
09 00:53 W 26 16.09 Fair CLR 11.7 -2.8 37% 76.17 1008.3
08 23:53 SW 28 16.09 Fair CLR 11.7 -2.8 20 11.7 37% 76.17 1008.9
08 22:53 SW 30 G 43 16.09 Overcast OVC100 12.8 -2.8 34% 76.15 1008.4
08 21:53 SW 26 G 46 16.09 Fair CLR 15 -4.4 26% 76.17 1008.5
08 20:53 SW 17 16.09 Fair CLR 15.6 -3.9 26% 76.12 1008.2
08 19:53 W 11 16.09 Partly Cloudy SCT100 15 -2.8 29% 76.1 1008.6
08 18:53 W 31 G 46 16.09 A Few Clouds FEW100 18.3 -5.6 19% 76.1 1008.2
08 17:53 SW 22 G 48 16.09 A Few Clouds FEW100 20 -4.4 20 12.8 19% 76.1 1008.1
08 16:53 SW 17 G 41 16.09 A Few Clouds FEW090 19.4 -3.3 21% 76.12 1009.1
08 15:53 SW 17 G 44 16.09 A Few Clouds FEW085 18.9 -2.8 23% 76.2 1009.7
08 14:53 W 28 G 39 16.09 A Few Clouds FEW080 18.3 -2.8 24% 76.25 1010.4
08 13:53 W 11 G 28 16.09 Mostly Cloudy BKN075 16.7 0 32% 76.3 1011.4
08 12:53 Calm 16.09 Partly Cloudy SCT055 14.4 2.2 44% 76.35 1012.1
08 11:53 Calm 16.09 Fair CLR 12.8 2.2 13.3 2.2 49% 76.4 1014.1
08 10:53 NE 9 16.09 Fair CLR 12.2 2.8 53% 76.45 1014.2
08 09:53 Calm 16.09 Fair CLR 10 2.2 59% 76.45 1014.4
08 08:53 Calm 16.09 Fair CLR 8.3 2.2 66% 76.48 1014.8
08 07:53 S 7 16.09 Fair CLR 6.1 3.3 82% 5 76.48 1014.8
08 06:53 SW 6 16.09 Fair CLR 3.9 2.8 93% 76.43 1014.0
08 05:53 SW 9 16.09 A Few Clouds FEW100 2.8 1.7 6.1 1.7 93% 1 76.43 1014.5 0.18
08 04:53 S 6 16.09 Mostly Cloudy SCT085 BKN110 1.7 1.7 100% 76.43 1014.9
08 03:53 Calm 16.09 Mostly Cloudy SCT065 BKN085 BKN110 3.3 2.8 97% 76.43 1014.8
08 02:53 NE 15 16.09 Light Rain SCT014 BKN021 OVC090 3.9 2.8 93% 1 76.45 1014.7 0.18 0.18
08 01:53 NE 17 16.09 A Few Clouds FEW085 3.9 2.8 93% 0 76.35 1012.2
08 00:53 N 13 16.09 Overcast OVC100 6.1 3.3 82% 4 76.35 1012.1
07 23:53 Calm 16.09 Mostly Cloudy SCT095 BKN110 3.3 1.7 15 3.3 89% 76.3 1012.5
07 22:53 E 7 16.09 A Few Clouds FEW090 6.1 2.8 80% 5 76.3 1012.0
07 21:53 NE 13 16.09 Overcast FEW075 OVC110 8.3 2.2 66% 6 76.28 1011.3
07 20:53 W 11 16.09 Overcast BKN080 OVC100 9.4 2.8 64% 8 76.23 1011.3
07 19:53 W 20 G 43 16.09 Light Rain FEW046 SCT080 BKN090 11.7 -0.6 43% 76.12 1010.0
07 18:53 W 30 G 44 16.09 A Few Clouds FEW075 FEW090 15 -2.2 31% 76.07 1008.5
07 17:53 W 20 16.09 Overcast FEW080 OVC100 13.9 0 17.8 11.7 39% 76.12 1009.5
07 16:53 NW 31 G 48 16.09 Mostly Cloudy SCT090 BKN110 13.3 1.1 44% 76.12 1009.6
07 15:53 N 30 G 56 16.09 Overcast OVC085 12.8 0 42% 76.12 1010.1
07 14:53 NW 22 G 35 16.09 Light Rain FEW050 FEW060 OVC080 13.9 1.1 42% 76.15 1009.9
07 13:53 W 35 G 48 16.09 Mostly Cloudy and Breezy SCT085 BKN110 17.2 -3.3 25% 76.15 1009.0
07 12:53 W 35 G 52 16.09 Partly Cloudy and Breezy FEW080 SCT100 16.1 -3.3 26% 76.2 1009.9
07 11:53 SW 30 G 57 16.09 Fair CLR 14.4 -1.7 14.4 5 33% 76.28 1011.6
07 10:53 SW 41 G 59 16.09 Fair and Breezy CLR 12.8 -2.8 34% 76.33 1012.6
07 09:53 SW 39 G 59 16.09 Mostly Cloudy and Breezy BKN110 11.1 -3.3 37% 76.38 1014.0
07 08:53 SW 33 G 46 16.09 A Few Clouds and Breezy FEW110 7.8 -4.4 42% 4 76.4 1015.0
07 07:53 SW 24 16.09 A Few Clouds FEW120 6.1 -4.4 47% 2 76.4 1015.1
07 06:53 W 35 G 54 16.09 Overcast and Breezy SCT039 BKN070 OVC095 5.6 -3.9 51% 1 76.43 1015.2
07 05:53 SW 28 16.09 Mostly Cloudy FEW075 BKN100 5 -4.4 5.6 4.4 51% 1 76.33 1013.8
07 04:53 SW 41 G 54 16.09 A Few Clouds and Breezy FEW090 FEW120 5 -5 49% -0 76.33 1014.2
07 03:53 SW 43 G 56 16.09 Fair and Windy CLR 5 -4.4 51% -0 76.38 1015.1
07 02:53 SW 41 G 56 16.09 Fair and Breezy CLR 5 -4.4 51% -0 76.35 1015.2
07 01:53 SW 43 G 54 16.09 Fair and Windy CLR 5.6 -5 47% 0 76.38 1015.4
07 00:53 SW 31 G 52 16.09 Fair CLR 5.6 -5.6 45% 1 76.38 1016.1
06 23:53 SW 39 G 63 16.09 Fair and Breezy CLR 5.6 -6.1 8.9 4.4 43% 1 76.38 1016.7
06 22:53 SW 30 16.09 Fair CLR 5.6 -5 47% 1 76.38 1017.0
06 21:53 SW 19 G 33 16.09 Fair CLR 4.4 -4.4 53% 1 76.38 1017.8
06 20:53 SW 26 G 41 16.09 Fair CLR 5 -5 49% 1 76.38 1017.7
06 19:53 SW 26 16.09 Fair CLR 6.7 -5.6 41% 3 76.35 1017.5
06 18:53 SW 37 G 48 16.09 Fair and Breezy CLR 8.3 -7.8 31% 4 76.33 1016.4
06 17:53 W 33 G 48 16.09 Fair and Breezy CLR 8.9 -6.7 8.9 0.6 33% 5 76.35 1016.6
06 16:53 W 37 G 50 16.09 A Few Clouds and Breezy FEW055 8.3 -7.2 33% 4 76.35 1016.6
06 15:53 SW 31 G 46 16.09 Mostly Cloudy BKN050 6.7 -5.6 41% 3 76.4 1018.0
06 14:53 SW 20 16.09 Partly Cloudy SCT048 5.6 -6.1 43% 2 76.43 1018.7
06 13:53 SW 20 16.09 Mostly Cloudy BKN046 5 -6.1 45% 1 76.48 1019.4
06 12:53 Vrbl 7 16.09 A Few Clouds FEW040 2.8 -7.2 48% 1 76.48 1020.4
06 11:53 NW 7 16.09 Mostly Cloudy SCT030 BKN037 0.6 -6.1 1.1 -3.3 61% -1 76.5 1020.9
06 10:53 Vrbl 6 16.09 A Few Clouds FEW035 -0.6 -6.7 64% 76.48 1021.1
06 09:53 N 13 16.09 A Few Clouds FEW014 -1.1 -5 75% -5 76.45 1020.8
06 08:53 NE 13 16.09 A Few Clouds FEW013 -2.2 -5 81% -6 76.43 1020.8
06 07:53 N 13 16.09 A Few Clouds FEW014 -3.3 -5.6 84% -8 76.43 1020.6
06 06:53 NE 17 16.09 Overcast SCT014 OVC045 -3.3 -5 88% -8 76.38 1020.0
06 05:53 N 13 14.48 Light Snow FEW008 BKN021 OVC035 -3.3 -4.4 -2.2 -3.9 92% -8 76.33 1018.8 0.03
06 04:53 N 13 14.48 Overcast OVC021 -2.8 -3.9 92% -7 76.33 1018.4
06 03:53 NE 15 16.09 Overcast BKN006 OVC011 -3.3 -3.9 96% -8 76.28 1018.0
06 02:53 NE 13 14.48 Overcast BKN009 BKN017 OVC034 -3.3 -3.9 96% -8 76.28 1017.5 0.03
Date Time (mdt) Wind (kph) Vis. (km) Weather Sky Cond. Air Dwpt Max. Min. Relative Humidity Wind Chill (°C) Heat Index (°C) altimeter (cm) sea level (mb) 1 hr 3 hr 6 hr
6 hour
Temperature (ºC) Pressure Precipitation (cm)